Nearby METAR Reports

 

KADS - Dallas/Addison, Texas, USA
Distance from station: SE 8mi, 12km
Updated: 02/23/2018 11:47am
Mist, Overcast
Mist, Overcast
 Wind from NNW
Wind: NNW 5 mph , 7 km/h
Temperature: 45°F , 7°C
Wind Chill: 42°F , 6°C
Dew Point: 43°F , 6°C
Humidity: 93%
Barometer: 30.22 inHg , 1023.4 hPa
Summary: Mist
Clouds: Overcast
Visibility: 1 1/2 miles , 2 km
Cloud details: Overcast 400 ft
2018/02/23 17:47 KADS 231747Z 33004KT 1 1/2SM BR OVC004 07/06 A3022
KDFW - Dallas/Ft Worth, Texas, USA
Distance from station: SSW 12mi, 20km
Updated: 02/23/2018 11:53am
Mist, Overcast
Mist, Overcast
 Wind from N
Wind: N 9 mph , 15 km/h
Temperature: 46°F , 8°C
Wind Chill: 41°F , 5°C
Dew Point: 45°F , 7°C
Humidity: 93%
Barometer: 30.17 inHg , 1021.7 hPa
Summary: Mist
Clouds: Overcast
Visibility: 1 1/4 miles , 2 km
Cloud details: Overcast 400 ft
2018/02/23 17:53 KDFW 231753Z 01008KT 1 1/4SM BR OVC004 08/07 A3017 RMK AO2 SFC VIS 2 1/2 PRESFR SLP216 60000 T00780067 10078 20050 58005
 
KDAL - Dallas/Love Fld, Texas, USA
Distance from station: SSE 14mi, 23km
Updated: 02/23/2018 11:53am
Mist, Overcast
Mist, Overcast
 Wind from NNW
Wind: NNW 7 mph , 11 km/h
Temperature: 46°F , 8°C
Wind Chill: 42°F , 6°C
Dew Point: 45°F , 7°C
Humidity: 93%
Barometer: 30.21 inHg , 1023 hPa
Summary: Mist
Clouds: Overcast
Visibility: 3 miles , 5 km
Cloud details: Overcast 400 ft
2018/02/23 17:53 KDAL 231753Z 33006KT 3SM BR OVC004 08/07 A3021 RMK AO2 SLP228 60005 T00780067 10078 20050 58001 $
KMWL - Mineral Wells, Texas, USA
Distance from station: ESE 2mi, 4km
Updated: 02/23/2018 12:19pm
Light thunderstorm, Rain, Mist, Overcast
Light thunderstorm, Rain, Mist, Overcast
 Wind from NNE
Wind: NNE 7 mph , 11 km/h
Temperature: 39°F , 4°C
Wind Chill: 34°F , 1°C
Dew Point: 39°F , 4°C
Humidity: 100%
Barometer: 30.15 inHg , 1021 hPa
Summary: Light thunderstorm, Rain, Mist
Clouds: Overcast
Visibility: 2 miles , 3 km
Cloud details: Overcast 300 ft
2018/02/23 18:19 KMWL 231819Z AUTO 03006KT 2SM -TSRA BR OVC003 04/04 A3015 RMK AO2 VIS 1 1/2V2 1/2 LTG DSNT SW RAB04 TSB08 P0000 T00440039 $
 
KTYR - Tyler, Texas, USA
Distance from station: W 6mi, 10km
Updated: 02/23/2018 11:53am
Mist, Overcast
Mist, Overcast
 Wind from SE
Wind: SE 10 mph , 17 km/h
Temperature: 59°F , 15°C
Dew Point: 59°F , 15°C
Humidity: 100%
Barometer: 30.16 inHg , 1021.3 hPa
Summary: Mist
Clouds: Overcast
Visibility: 9 miles , 14 km
Cloud details: Overcast 300 ft
2018/02/23 17:53 KTYR 231753Z 14009KT 9SM BR OVC003 15/15 A3016 RMK AO2 SLP211 T01500150 10150 20083 58020